sensor_id;sensor_type;location;lat;lon;timestamp;pressure;altitude;pressure_sealevel;temperature;humidity
34979;BME280;21185;50.978;13.720;2023-04-10T00:03:14;99156.66;;;8.42;60.65
34979;BME280;21185;50.978;13.720;2023-04-10T00:08:23;99156.78;;;8.41;60.72
34979;BME280;21185;50.978;13.720;2023-04-10T00:13:25;99157.88;;;8.38;60.75
34979;BME280;21185;50.978;13.720;2023-04-10T00:18:27;99151.31;;;8.34;60.96
34979;BME280;21185;50.978;13.720;2023-04-10T00:23:29;99157.66;;;8.30;60.85
34979;BME280;21185;50.978;13.720;2023-04-10T00:28:33;99154.38;;;8.28;60.80
34979;BME280;21185;50.978;13.720;2023-04-10T00:33:38;99144.03;;;8.28;60.96
34979;BME280;21185;50.978;13.720;2023-04-10T00:38:40;99140.75;;;8.26;60.98
34979;BME280;21185;50.978;13.720;2023-04-10T00:43:43;99145.34;;;8.23;61.02
34979;BME280;21185;50.978;13.720;2023-04-10T00:48:46;99137.84;;;8.20;60.87
34979;BME280;21185;50.978;13.720;2023-04-10T00:53:51;99126.94;;;8.16;61.02
34979;BME280;21185;50.978;13.720;2023-04-10T00:58:53;99124.59;;;8.13;61.05
34979;BME280;21185;50.978;13.720;2023-04-10T01:03:55;99123.66;;;8.14;61.19
34979;BME280;21185;50.978;13.720;2023-04-10T01:15:04;99134.94;;;8.13;61.17
34979;BME280;21185;50.978;13.720;2023-04-10T01:20:19;99133.56;;;8.09;60.99
34979;BME280;21185;50.978;13.720;2023-04-10T01:30:50;99141.47;;;7.96;61.33
34979;BME280;21185;50.978;13.720;2023-04-10T01:35:54;99147.03;;;7.92;61.33
34979;BME280;21185;50.978;13.720;2023-04-10T01:41:00;99143.88;;;7.88;61.34
34979;BME280;21185;50.978;13.720;2023-04-10T01:46:04;99139.06;;;7.84;61.24
34979;BME280;21185;50.978;13.720;2023-04-10T01:51:07;99138.25;;;7.83;61.51
34979;BME280;21185;50.978;13.720;2023-04-10T01:56:14;99132.13;;;7.84;61.57
34979;BME280;21185;50.978;13.720;2023-04-10T02:01:20;99135.41;;;7.86;61.50
34979;BME280;21185;50.978;13.720;2023-04-10T02:12:03;99128.25;;;7.90;61.68
34979;BME280;21185;50.978;13.720;2023-04-10T02:17:07;99116.84;;;7.92;61.67
34979;BME280;21185;50.978;13.720;2023-04-10T02:22:10;99117.66;;;7.93;61.82
34979;BME280;21185;50.978;13.720;2023-04-10T02:27:12;99116.00;;;7.92;61.65
34979;BME280;21185;50.978;13.720;2023-04-10T02:32:14;99110.16;;;7.90;61.78
34979;BME280;21185;50.978;13.720;2023-04-10T02:37:20;99101.13;;;7.84;61.75
34979;BME280;21185;50.978;13.720;2023-04-10T02:42:23;99108.56;;;7.77;61.75
34979;BME280;21185;50.978;13.720;2023-04-10T02:47:28;99112.56;;;7.70;61.91
34979;BME280;21185;50.978;13.720;2023-04-10T02:52:30;99114.72;;;7.65;62.02
34979;BME280;21185;50.978;13.720;2023-04-10T02:57:33;99108.16;;;7.61;61.98
34979;BME280;21185;50.978;13.720;2023-04-10T03:02:35;99110.28;;;7.56;61.78
34979;BME280;21185;50.978;13.720;2023-04-10T03:07:47;99107.25;;;7.51;61.88
34979;BME280;21185;50.978;13.720;2023-04-10T03:12:50;99108.31;;;7.48;61.99
34979;BME280;21185;50.978;13.720;2023-04-10T03:17:52;99115.69;;;7.53;61.99
34979;BME280;21185;50.978;13.720;2023-04-10T03:22:54;99108.66;;;7.55;62.15
34979;BME280;21185;50.978;13.720;2023-04-10T03:28:00;99114.38;;;7.59;62.12
34979;BME280;21185;50.978;13.720;2023-04-10T03:33:03;99111.19;;;7.66;62.26
34979;BME280;21185;50.978;13.720;2023-04-10T03:38:04;99110.00;;;7.70;62.28
34979;BME280;21185;50.978;13.720;2023-04-10T03:43:06;99115.72;;;7.74;62.29
34979;BME280;21185;50.978;13.720;2023-04-10T03:48:09;99113.72;;;7.77;62.41
34979;BME280;21185;50.978;13.720;2023-04-10T03:53:15;99109.94;;;7.82;62.39
34979;BME280;21185;50.978;13.720;2023-04-10T03:58:19;99119.91;;;7.86;62.50
34979;BME280;21185;50.978;13.720;2023-04-10T04:03:21;99129.31;;;7.87;62.64
34979;BME280;21185;50.978;13.720;2023-04-10T04:08:37;99123.06;;;7.90;62.80
34979;BME280;21185;50.978;13.720;2023-04-10T04:13:51;99122.13;;;7.91;62.75
34979;BME280;21185;50.978;13.720;2023-04-10T04:19:12;99127.28;;;7.91;62.91
34979;BME280;21185;50.978;13.720;2023-04-10T04:24:34;99132.47;;;7.91;62.99
34979;BME280;21185;50.978;13.720;2023-04-10T04:29:49;99140.22;;;7.91;63.27
34979;BME280;21185;50.978;13.720;2023-04-10T04:34:58;99143.38;;;7.94;63.30
34979;BME280;21185;50.978;13.720;2023-04-10T04:40:21;99136.19;;;7.98;63.39
34979;BME280;21185;50.978;13.720;2023-04-10T04:45:35;99146.03;;;8.04;63.26
34979;BME280;21185;50.978;13.720;2023-04-10T04:50:44;99138.72;;;8.09;63.28
34979;BME280;21185;50.978;13.720;2023-04-10T04:55:51;99134.69;;;8.16;63.60
34979;BME280;21185;50.978;13.720;2023-04-10T05:01:13;99140.19;;;8.23;63.41
34979;BME280;21185;50.978;13.720;2023-04-10T05:06:42;99151.91;;;8.27;63.68
34979;BME280;21185;50.978;13.720;2023-04-10T05:11:48;99145.53;;;8.31;63.71
34979;BME280;21185;50.978;13.720;2023-04-10T05:17:12;99138.81;;;8.39;63.77
34979;BME280;21185;50.978;13.720;2023-04-10T05:22:18;99147.56;;;8.48;63.95
34979;BME280;21185;50.978;13.720;2023-04-10T05:27:47;99153.19;;;8.53;64.09
34979;BME280;21185;50.978;13.720;2023-04-10T05:33:08;99144.34;;;8.56;64.21
34979;BME280;21185;50.978;13.720;2023-04-10T05:38:41;99152.81;;;8.58;64.42
34979;BME280;21185;50.978;13.720;2023-04-10T05:44:00;99157.03;;;8.59;64.41
34979;BME280;21185;50.978;13.720;2023-04-10T05:49:29;99151.59;;;8.62;64.58
34979;BME280;21185;50.978;13.720;2023-04-10T05:54:55;99151.09;;;8.68;64.62
34979;BME280;21185;50.978;13.720;2023-04-10T06:00:14;99151.53;;;8.73;64.83
34979;BME280;21185;50.978;13.720;2023-04-10T06:05:41;99140.41;;;8.82;64.75
34979;BME280;21185;50.978;13.720;2023-04-10T06:10:44;99145.75;;;8.90;64.91
34979;BME280;21185;50.978;13.720;2023-04-10T06:15:46;99151.78;;;9.00;65.10
34979;BME280;21185;50.978;13.720;2023-04-10T06:20:48;99144.59;;;9.14;65.07
34979;BME280;21185;50.978;13.720;2023-04-10T06:25:50;99147.09;;;9.25;65.30
34979;BME280;21185;50.978;13.720;2023-04-10T06:30:53;99141.78;;;9.36;65.46
34979;BME280;21185;50.978;13.720;2023-04-10T06:36:03;99146.03;;;9.47;65.48
34979;BME280;21185;50.978;13.720;2023-04-10T06:41:11;99137.59;;;9.54;65.69
34979;BME280;21185;50.978;13.720;2023-04-10T06:46:12;99139.66;;;9.60;65.95
34979;BME280;21185;50.978;13.720;2023-04-10T06:51:16;99136.13;;;9.71;66.07
34979;BME280;21185;50.978;13.720;2023-04-10T06:56:18;99139.13;;;9.86;66.00
34979;BME280;21185;50.978;13.720;2023-04-10T07:01:20;99135.84;;;10.03;65.79
34979;BME280;21185;50.978;13.720;2023-04-10T07:06:22;99134.59;;;10.17;65.81
34979;BME280;21185;50.978;13.720;2023-04-10T07:11:24;99128.34;;;10.29;65.74
34979;BME280;21185;50.978;13.720;2023-04-10T07:16:26;99127.03;;;10.43;65.61
34979;BME280;21185;50.978;13.720;2023-04-10T07:21:30;99127.28;;;10.59;65.38
34979;BME280;21185;50.978;13.720;2023-04-10T07:26:33;99128.03;;;10.79;65.11
34979;BME280;21185;50.978;13.720;2023-04-10T07:31:35;99124.44;;;10.89;64.96
34979;BME280;21185;50.978;13.720;2023-04-10T07:36:37;99122.47;;;11.01;65.12
34979;BME280;21185;50.978;13.720;2023-04-10T07:41:39;99115.31;;;11.13;64.90
34979;BME280;21185;50.978;13.720;2023-04-10T07:46:42;99120.28;;;11.24;64.96
34979;BME280;21185;50.978;13.720;2023-04-10T07:51:44;99115.47;;;11.29;65.26
34979;BME280;21185;50.978;13.720;2023-04-10T07:56:46;99110.44;;;11.27;65.56
34979;BME280;21185;50.978;13.720;2023-04-10T08:01:48;99108.19;;;11.15;65.63
34979;BME280;21185;50.978;13.720;2023-04-10T08:06:50;99103.22;;;11.21;66.02
34979;BME280;21185;50.978;13.720;2023-04-10T08:11:52;99110.22;;;11.39;66.22
34979;BME280;21185;50.978;13.720;2023-04-10T08:16:54;99104.38;;;11.54;65.93
34979;BME280;21185;50.978;13.720;2023-04-10T08:21:55;99100.00;;;11.73;65.72
34979;BME280;21185;50.978;13.720;2023-04-10T08:26:57;99099.19;;;11.90;65.53
34979;BME280;21185;50.978;13.720;2023-04-10T08:31:59;99091.97;;;12.02;65.60
34979;BME280;21185;50.978;13.720;2023-04-10T08:37:05;99096.25;;;12.11;65.61
34979;BME280;21185;50.978;13.720;2023-04-10T08:42:09;99085.59;;;12.22;65.40
34979;BME280;21185;50.978;13.720;2023-04-10T08:47:12;99077.84;;;12.30;65.23
34979;BME280;21185;50.978;13.720;2023-04-10T08:52:20;99079.38;;;12.41;65.05
34979;BME280;21185;50.978;13.720;2023-04-10T08:57:23;99071.66;;;12.57;64.87
34979;BME280;21185;50.978;13.720;2023-04-10T09:02:27;99076.13;;;12.73;64.85
34979;BME280;21185;50.978;13.720;2023-04-10T09:07:30;99065.28;;;12.85;64.60
34979;BME280;21185;50.978;13.720;2023-04-10T09:12:45;99058.47;;;12.92;64.59
34979;BME280;21185;50.978;13.720;2023-04-10T09:17:59;99053.28;;;13.01;64.35
34979;BME280;21185;50.978;13.720;2023-04-10T09:23:18;99052.22;;;13.19;64.39
34979;BME280;21185;50.978;13.720;2023-04-10T09:28:21;99045.88;;;13.30;64.10
34979;BME280;21185;50.978;13.720;2023-04-10T09:33:25;99045.88;;;13.30;64.06
34979;BME280;21185;50.978;13.720;2023-04-10T09:38:31;99043.13;;;13.40;64.27
34979;BME280;21185;50.978;13.720;2023-04-10T09:43:33;99039.56;;;13.49;64.13
34979;BME280;21185;50.978;13.720;2023-04-10T09:48:35;99034.34;;;13.49;63.76
34979;BME280;21185;50.978;13.720;2023-04-10T09:53:47;99020.81;;;13.70;63.26
34979;BME280;21185;50.978;13.720;2023-04-10T09:58:58;99013.63;;;13.88;63.06
34979;BME280;21185;50.978;13.720;2023-04-10T10:04:02;98996.84;;;13.82;63.16
34979;BME280;21185;50.978;13.720;2023-04-10T10:09:04;98998.81;;;13.80;63.15
34979;BME280;21185;50.978;13.720;2023-04-10T10:14:12;98989.16;;;13.97;62.46
34979;BME280;21185;50.978;13.720;2023-04-10T10:25:13;98983.72;;;14.23;60.76
34979;BME280;21185;50.978;13.720;2023-04-10T10:30:17;98967.50;;;14.36;60.43
34979;BME280;21185;50.978;13.720;2023-04-10T10:35:30;98967.66;;;14.50;60.06
34979;BME280;21185;50.978;13.720;2023-04-10T10:46:11;98949.78;;;14.23;59.95
34979;BME280;21185;50.978;13.720;2023-04-10T10:51:13;98943.38;;;14.34;59.68
34979;BME280;21185;50.978;13.720;2023-04-10T11:01:21;98922.00;;;14.69;58.66
34979;BME280;21185;50.978;13.720;2023-04-10T11:06:53;98918.53;;;14.77;57.76
34979;BME280;21185;50.978;13.720;2023-04-10T11:11:58;98902.34;;;14.81;57.90
34979;BME280;21185;50.978;13.720;2023-04-10T11:16:59;98913.06;;;14.86;57.60
34979;BME280;21185;50.978;13.720;2023-04-10T11:22:06;98886.72;;;14.96;57.32
34979;BME280;21185;50.978;13.720;2023-04-10T11:32:41;98877.31;;;14.87;56.05
34979;BME280;21185;50.978;13.720;2023-04-10T11:37:43;98867.84;;;14.86;55.21
34979;BME280;21185;50.978;13.720;2023-04-10T11:42:46;98865.22;;;14.86;54.51
34979;BME280;21185;50.978;13.720;2023-04-10T11:47:52;98851.81;;;14.89;54.77
34979;BME280;21185;50.978;13.720;2023-04-10T11:52:56;98855.88;;;14.92;54.08
34979;BME280;21185;50.978;13.720;2023-04-10T11:57:58;98845.25;;;14.93;52.91
34979;BME280;21185;50.978;13.720;2023-04-10T12:03:00;98832.38;;;14.92;51.64
34979;BME280;21185;50.978;13.720;2023-04-10T12:08:03;98831.66;;;14.98;51.77
34979;BME280;21185;50.978;13.720;2023-04-10T12:13:05;98835.19;;;15.05;51.67
34979;BME280;21185;50.978;13.720;2023-04-10T12:18:08;98822.75;;;15.07;50.93
34979;BME280;21185;50.978;13.720;2023-04-10T12:23:11;98827.63;;;15.10;50.42
34979;BME280;21185;50.978;13.720;2023-04-10T12:28:20;98826.56;;;15.19;50.07
34979;BME280;21185;50.978;13.720;2023-04-10T12:33:24;98821.50;;;15.17;50.20
34979;BME280;21185;50.978;13.720;2023-04-10T12:38:40;98813.50;;;15.19;50.14
34979;BME280;21185;50.978;13.720;2023-04-10T12:43:43;98815.13;;;15.20;50.62
34979;BME280;21185;50.978;13.720;2023-04-10T12:48:45;98809.88;;;15.20;49.91
34979;BME280;21185;50.978;13.720;2023-04-10T12:53:47;98809.19;;;15.26;49.69
34979;BME280;21185;50.978;13.720;2023-04-10T12:59:05;98794.03;;;15.21;49.79
34979;BME280;21185;50.978;13.720;2023-04-10T13:04:08;98784.84;;;15.26;50.23
34979;BME280;21185;50.978;13.720;2023-04-10T13:09:11;98786.72;;;15.32;50.13
34979;BME280;21185;50.978;13.720;2023-04-10T13:14:13;98788.09;;;15.28;49.82
34979;BME280;21185;50.978;13.720;2023-04-10T13:19:16;98776.53;;;15.22;49.56
34979;BME280;21185;50.978;13.720;2023-04-10T13:24:19;98768.69;;;15.07;50.05
34979;BME280;21185;50.978;13.720;2023-04-10T13:29:21;98770.22;;;15.02;49.76
34979;BME280;21185;50.978;13.720;2023-04-10T13:34:22;98754.00;;;15.06;49.40
34979;BME280;21185;50.978;13.720;2023-04-10T13:39:28;98748.41;;;15.24;49.15
34979;BME280;21185;50.978;13.720;2023-04-10T13:44:30;98736.88;;;15.18;49.38
34979;BME280;21185;50.978;13.720;2023-04-10T13:49:32;98722.38;;;15.16;49.29
34979;BME280;21185;50.978;13.720;2023-04-10T13:54:37;98712.63;;;15.25;48.44
34979;BME280;21185;50.978;13.720;2023-04-10T13:59:42;98710.09;;;15.31;47.78
34979;BME280;21185;50.978;13.720;2023-04-10T14:04:44;98702.78;;;15.41;47.63
34979;BME280;21185;50.978;13.720;2023-04-10T14:09:48;98703.41;;;15.43;47.41
34979;BME280;21185;50.978;13.720;2023-04-10T14:14:50;98691.34;;;15.42;47.36
34979;BME280;21185;50.978;13.720;2023-04-10T14:19:52;98685.56;;;15.47;47.26
34979;BME280;21185;50.978;13.720;2023-04-10T14:24:54;98683.94;;;15.46;46.75
34979;BME280;21185;50.978;13.720;2023-04-10T14:30:12;98679.50;;;15.46;46.84
34979;BME280;21185;50.978;13.720;2023-04-10T14:35:14;98666.81;;;15.43;46.98
34979;BME280;21185;50.978;13.720;2023-04-10T14:40:16;98660.22;;;15.47;46.93
34979;BME280;21185;50.978;13.720;2023-04-10T14:45:18;98655.34;;;15.44;46.78
34979;BME280;21185;50.978;13.720;2023-04-10T14:50:20;98654.97;;;15.47;46.84
34979;BME280;21185;50.978;13.720;2023-04-10T14:55:22;98641.66;;;15.42;45.76
34979;BME280;21185;50.978;13.720;2023-04-10T15:00:25;98633.25;;;15.47;45.75
34979;BME280;21185;50.978;13.720;2023-04-10T15:05:30;98631.81;;;15.59;45.79
34979;BME280;21185;50.978;13.720;2023-04-10T15:10:32;98622.19;;;15.66;45.90
34979;BME280;21185;50.978;13.720;2023-04-10T15:15:34;98625.25;;;15.70;45.58
34979;BME280;21185;50.978;13.720;2023-04-10T15:20:36;98604.38;;;15.76;45.57
34979;BME280;21185;50.978;13.720;2023-04-10T15:25:39;98597.53;;;15.75;45.16
34979;BME280;21185;50.978;13.720;2023-04-10T15:30:44;98590.91;;;15.79;45.17
34979;BME280;21185;50.978;13.720;2023-04-10T15:35:47;98588.94;;;15.81;44.84
34979;BME280;21185;50.978;13.720;2023-04-10T15:40:51;98573.22;;;15.81;45.08
34979;BME280;21185;50.978;13.720;2023-04-10T15:45:52;98572.72;;;15.71;44.88
34979;BME280;21185;50.978;13.720;2023-04-10T15:50:54;98563.31;;;15.55;44.78
34979;BME280;21185;50.978;13.720;2023-04-10T15:55:56;98553.00;;;15.47;44.94
34979;BME280;21185;50.978;13.720;2023-04-10T16:00:59;98557.78;;;15.44;44.99
34979;BME280;21185;50.978;13.720;2023-04-10T16:06:01;98541.03;;;15.38;44.57
34979;BME280;21185;50.978;13.720;2023-04-10T16:11:03;98533.25;;;15.23;44.35
34979;BME280;21185;50.978;13.720;2023-04-10T16:16:06;98528.50;;;15.12;44.11
34979;BME280;21185;50.978;13.720;2023-04-10T16:21:11;98522.03;;;15.08;43.94
34979;BME280;21185;50.978;13.720;2023-04-10T16:26:15;98523.53;;;15.17;44.26
34979;BME280;21185;50.978;13.720;2023-04-10T16:31:17;98519.72;;;15.20;44.32
34979;BME280;21185;50.978;13.720;2023-04-10T16:36:19;98515.00;;;15.09;44.26
34979;BME280;21185;50.978;13.720;2023-04-10T16:41:21;98513.75;;;15.05;44.64
34979;BME280;21185;50.978;13.720;2023-04-10T16:46:23;98512.94;;;15.04;44.67
34979;BME280;21185;50.978;13.720;2023-04-10T16:51:25;98500.94;;;15.10;44.58
34979;BME280;21185;50.978;13.720;2023-04-10T16:56:30;98494.59;;;15.19;44.31
34979;BME280;21185;50.978;13.720;2023-04-10T17:01:33;98488.22;;;15.07;44.63
34979;BME280;21185;50.978;13.720;2023-04-10T17:06:40;98486.66;;;14.91;44.95
34979;BME280;21185;50.978;13.720;2023-04-10T17:11:42;98476.78;;;14.72;45.13
34979;BME280;21185;50.978;13.720;2023-04-10T17:16:44;98475.00;;;14.57;45.12
34979;BME280;21185;50.978;13.720;2023-04-10T17:21:46;98473.03;;;14.45;45.12
34979;BME280;21185;50.978;13.720;2023-04-10T17:26:48;98470.88;;;14.34;45.36
34979;BME280;21185;50.978;13.720;2023-04-10T17:31:51;98466.09;;;14.22;45.24
34979;BME280;21185;50.978;13.720;2023-04-10T17:36:53;98465.75;;;14.11;45.43
34979;BME280;21185;50.978;13.720;2023-04-10T17:41:54;98462.75;;;13.99;45.44
34979;BME280;21185;50.978;13.720;2023-04-10T17:46:57;98456.00;;;13.90;45.65
34979;BME280;21185;50.978;13.720;2023-04-10T17:51:59;98452.22;;;13.78;45.65
34979;BME280;21185;50.978;13.720;2023-04-10T17:57:01;98451.84;;;13.66;45.65
34979;BME280;21185;50.978;13.720;2023-04-10T18:02:03;98451.09;;;13.57;45.91
34979;BME280;21185;50.978;13.720;2023-04-10T18:07:05;98433.09;;;13.48;46.02
34979;BME280;21185;50.978;13.720;2023-04-10T18:12:07;98423.91;;;13.37;45.75
34979;BME280;21185;50.978;13.720;2023-04-10T18:17:09;98437.19;;;13.27;45.81
34979;BME280;21185;50.978;13.720;2023-04-10T18:22:14;98441.31;;;13.22;45.97
34979;BME280;21185;50.978;13.720;2023-04-10T18:27:16;98431.72;;;13.14;46.00
34979;BME280;21185;50.978;13.720;2023-04-10T18:32:18;98416.97;;;13.07;46.03
34979;BME280;21185;50.978;13.720;2023-04-10T18:37:21;98410.00;;;12.99;46.02
34979;BME280;21185;50.978;13.720;2023-04-10T18:42:23;98404.22;;;12.89;46.03
34979;BME280;21185;50.978;13.720;2023-04-10T18:47:25;98403.31;;;12.82;46.25
34979;BME280;21185;50.978;13.720;2023-04-10T18:52:27;98395.19;;;12.77;46.17
34979;BME280;21185;50.978;13.720;2023-04-10T18:57:29;98395.38;;;12.75;46.25
34979;BME280;21185;50.978;13.720;2023-04-10T19:02:31;98394.91;;;12.72;46.05
34979;BME280;21185;50.978;13.720;2023-04-10T19:07:33;98389.06;;;12.70;46.18
34979;BME280;21185;50.978;13.720;2023-04-10T19:12:36;98383.38;;;12.66;46.38
34979;BME280;21185;50.978;13.720;2023-04-10T19:17:40;98378.53;;;12.63;46.46
34979;BME280;21185;50.978;13.720;2023-04-10T19:22:42;98368.78;;;12.57;46.53
34979;BME280;21185;50.978;13.720;2023-04-10T19:27:44;98362.19;;;12.46;46.70
34979;BME280;21185;50.978;13.720;2023-04-10T19:32:48;98353.63;;;12.38;46.86
34979;BME280;21185;50.978;13.720;2023-04-10T19:37:50;98343.91;;;12.31;46.97
34979;BME280;21185;50.978;13.720;2023-04-10T19:42:52;98334.19;;;12.25;47.04
34979;BME280;21185;50.978;13.720;2023-04-10T19:47:55;98325.25;;;12.20;47.17
34979;BME280;21185;50.978;13.720;2023-04-10T19:52:57;98318.78;;;12.16;47.36
34979;BME280;21185;50.978;13.720;2023-04-10T19:58:00;98322.88;;;12.10;47.56
34979;BME280;21185;50.978;13.720;2023-04-10T20:03:02;98319.34;;;12.03;47.76
34979;BME280;21185;50.978;13.720;2023-04-10T20:08:04;98314.00;;;11.96;47.93
34979;BME280;21185;50.978;13.720;2023-04-10T20:13:06;98309.31;;;11.92;48.00
34979;BME280;21185;50.978;13.720;2023-04-10T20:18:08;98297.63;;;11.88;48.22
34979;BME280;21185;50.978;13.720;2023-04-10T20:23:11;98295.72;;;11.82;48.36
34979;BME280;21185;50.978;13.720;2023-04-10T20:28:14;98282.38;;;11.77;48.31
34979;BME280;21185;50.978;13.720;2023-04-10T20:33:17;98275.91;;;11.73;48.50
34979;BME280;21185;50.978;13.720;2023-04-10T20:38:19;98252.03;;;11.69;48.59
34979;BME280;21185;50.978;13.720;2023-04-10T20:43:21;98245.88;;;11.62;48.80
34979;BME280;21185;50.978;13.720;2023-04-10T20:48:23;98239.25;;;11.59;48.86
34979;BME280;21185;50.978;13.720;2023-04-10T20:53:25;98240.84;;;11.60;48.86
34979;BME280;21185;50.978;13.720;2023-04-10T20:58:27;98237.63;;;11.58;48.92
34979;BME280;21185;50.978;13.720;2023-04-10T21:03:29;98222.38;;;11.55;49.06
34979;BME280;21185;50.978;13.720;2023-04-10T21:08:31;98225.94;;;11.54;48.96
34979;BME280;21185;50.978;13.720;2023-04-10T21:13:33;98220.75;;;11.54;48.82
34979;BME280;21185;50.978;13.720;2023-04-10T21:18:38;98226.59;;;11.56;48.74
34979;BME280;21185;50.978;13.720;2023-04-10T21:23:40;98227.88;;;11.60;48.91
34979;BME280;21185;50.978;13.720;2023-04-10T21:28:42;98210.63;;;11.67;48.87
34979;BME280;21185;50.978;13.720;2023-04-10T21:33:44;98211.56;;;11.75;48.66
34979;BME280;21185;50.978;13.720;2023-04-10T21:38:49;98202.13;;;11.82;48.62
34979;BME280;21185;50.978;13.720;2023-04-10T21:43:50;98190.22;;;11.87;48.63
34979;BME280;21185;50.978;13.720;2023-04-10T21:48:52;98174.28;;;11.90;48.44
34979;BME280;21185;50.978;13.720;2023-04-10T21:53:55;98167.56;;;11.96;48.27
34979;BME280;21185;50.978;13.720;2023-04-10T21:58:57;98160.41;;;11.98;48.16
34979;BME280;21185;50.978;13.720;2023-04-10T22:03:59;98161.03;;;12.00;48.19
34979;BME280;21185;50.978;13.720;2023-04-10T22:09:01;98163.66;;;12.00;47.95
34979;BME280;21185;50.978;13.720;2023-04-10T22:14:02;98158.63;;;11.98;47.94
34979;BME280;21185;50.978;13.720;2023-04-10T22:19:18;98152.78;;;11.96;48.09
34979;BME280;21185;50.978;13.720;2023-04-10T22:24:19;98145.16;;;11.95;47.93
34979;BME280;21185;50.978;13.720;2023-04-10T22:29:21;98137.69;;;11.92;48.02
34979;BME280;21185;50.978;13.720;2023-04-10T22:34:23;98127.66;;;11.89;48.05
34979;BME280;21185;50.978;13.720;2023-04-10T22:39:25;98121.81;;;11.87;47.99
34979;BME280;21185;50.978;13.720;2023-04-10T22:44:27;98122.50;;;11.81;48.04
34979;BME280;21185;50.978;13.720;2023-04-10T22:49:29;98124.78;;;11.76;48.15
34979;BME280;21185;50.978;13.720;2023-04-10T22:54:31;98106.13;;;11.72;48.11
34979;BME280;21185;50.978;13.720;2023-04-10T22:59:36;98105.50;;;11.70;48.26
34979;BME280;21185;50.978;13.720;2023-04-10T23:04:38;98085.03;;;11.67;48.19
34979;BME280;21185;50.978;13.720;2023-04-10T23:09:40;98080.19;;;11.64;48.23
34979;BME280;21185;50.978;13.720;2023-04-10T23:14:44;98077.41;;;11.65;48.15
34979;BME280;21185;50.978;13.720;2023-04-10T23:19:46;98063.44;;;11.66;48.20
34979;BME280;21185;50.978;13.720;2023-04-10T23:24:55;98058.41;;;11.65;48.38
34979;BME280;21185;50.978;13.720;2023-04-10T23:29:57;98047.56;;;11.61;48.48
34979;BME280;21185;50.978;13.720;2023-04-10T23:34:59;98043.97;;;11.62;48.53
34979;BME280;21185;50.978;13.720;2023-04-10T23:40:01;98030.19;;;11.62;48.60
34979;BME280;21185;50.978;13.720;2023-04-10T23:45:03;98015.84;;;11.66;48.31
34979;BME280;21185;50.978;13.720;2023-04-10T23:50:05;98016.31;;;11.69;48.56
34979;BME280;21185;50.978;13.720;2023-04-10T23:55:07;98004.59;;;11.74;48.57
